logo
Search for airport 
image banner adimage banner adimage banner ad
image banner ad

YNDS - Natal Downs Airport

Located in Pentland, Australia

ICAO - YNDS, IATA -

Data provided by Airmate  

General information

Coordinates: S21°5'28" E146°9'25"
Elevation is 758 feet MSL.
Magnetic variation is 8° East
View others Airports in Queensland

Operational data

Special qualification required
Current time UTC:
Current local time:
Weather at : - ( 0 km )
METAR: PAMY 231637Z AUTO 17008KT 1 3/4SM -SN BR FEW013 BKN019 OVC034 M03/M03 A2949 RMK AO2 SNB02 P0000 FZRANO
View NOTAMs / SUP AIP / TFR affecting this airport [VIEW]
Communications frequencies: [VIEW]

Runways:

RWY identifierQFULength (ft)Width (ft)SurfaceLDA (ft)
0999°346964DIRT
27279°346964DIRT
0663°340740DIRT
24243°340740DIRT

Airport contact information

Address: Pentland Australia

Satellite view of YNDS